Time;durP1;ratioP1;P1;durP2;ratioP2;P2;SDS_P1;SDS_P2;PMS_P1;PMS_P2;Temp;Humidity;BMP_temperature;BMP_pressure;BME280_temperature;BME280_humidity;BME280_pressure;Samples;Min_cycle;Max_cycle;Signal;HPM_P1;HPM_P2
2022/04/10 00:01:37;;;;;;;7.53;3.35;;;17.80;59.00;;;;;;5155952;27;20037;-78
2022/04/10 00:04:05;;;;;;;8.38;3.78;;;17.70;59.80;;;;;;5156415;27;20042;-81
2022/04/10 00:06:32;;;;;;;9.80;3.92;;;17.60;61.70;;;;;;5155942;27;20045;-80
2022/04/10 00:09:00;;;;;;;22.80;4.35;;;17.50;63.70;;;;;;5156109;27;20042;-84
2022/04/10 00:11:27;;;;;;;10.45;4.30;;;17.40;64.60;;;;;;5137346;27;20505;-83
2022/04/10 00:13:54;;;;;;;10.70;4.05;;;17.20;65.00;;;;;;5156106;27;20052;-81
2022/04/10 00:16:22;;;;;;;10.35;4.10;;;17.10;63.90;;;;;;5156291;27;20039;-77
2022/04/10 00:18:51;;;;;;;6.53;3.45;;;17.30;64.40;;;;;;5156120;27;20065;-85
2022/04/10 00:21:18;;;;;;;12.73;3.67;;;17.30;64.60;;;;;;5156097;27;20578;-79
2022/04/10 00:23:45;;;;;;;11.13;3.58;;;17.30;64.40;;;;;;5155837;27;20038;-84
2022/04/10 00:26:13;;;;;;;7.93;3.67;;;17.20;63.60;;;;;;5155692;27;20404;-84
2022/04/10 00:28:41;;;;;;;7.03;4.15;;;17.40;63.20;;;;;;5156137;27;20121;-86
2022/04/10 00:31:08;;;;;;;9.13;3.45;;;17.30;63.70;;;;;;5155749;27;20031;-77
2022/04/10 00:33:36;;;;;;;14.20;3.90;;;17.40;63.60;;;;;;5137531;27;20461;-85
2022/04/10 00:36:04;;;;;;;7.80;3.45;;;17.30;65.10;;;;;;5155873;27;20338;-84
2022/04/10 00:38:31;;;;;;;7.35;3.55;;;17.30;65.20;;;;;;5155189;27;20039;-86
2022/04/10 00:40:58;;;;;;;7.63;3.38;;;17.40;62.80;;;;;;5155613;27;20397;-78
2022/04/10 00:43:32;;;;;;;10.82;3.47;;;17.30;62.10;;;;;;5136819;27;20493;-84
2022/04/10 00:46:00;;;;;;;9.27;3.35;;;17.40;63.50;;;;;;5155511;27;20123;-75
2022/04/10 00:48:27;;;;;;;8.50;3.78;;;17.40;63.50;;;;;;5155424;27;20039;-83
2022/04/10 00:53:43;;;;;;;8.38;3.58;;;17.30;64.40;;;;;;5155124;27;20046;-77
2022/04/10 00:56:10;;;;;;;9.80;4.38;;;17.30;64.50;;;;;;5144747;27;20050;-83
2022/04/10 00:58:38;;;;;;;11.05;4.10;;;17.30;65.30;;;;;;5134582;27;20039;-81
2022/04/10 01:01:07;;;;;;;11.27;4.03;;;17.30;66.60;;;;;;5134311;27;20039;-84
2022/04/10 01:03:34;;;;;;;10.77;4.35;;;17.20;68.10;;;;;;5134804;27;20087;-85
2022/04/10 01:06:02;;;;;;;8.75;4.53;;;17.00;70.10;;;;;;5135023;27;20039;-87
2022/04/10 01:08:29;;;;;;;9.57;4.38;;;16.70;71.00;;;;;;5134730;27;20039;-83
2022/04/10 01:10:57;;;;;;;11.15;4.20;;;16.80;71.20;;;;;;5134868;27;20035;-86
2022/04/10 01:13:24;;;;;;;9.35;4.43;;;16.90;71.10;;;;;;5134085;27;20097;-85
2022/04/10 01:15:53;;;;;;;11.55;4.50;;;17.00;70.70;;;;;;5134757;27;20062;-85
2022/04/10 01:18:20;;;;;;;7.70;4.15;;;17.10;71.20;;;;;;5134316;27;20058;-83
2022/04/10 01:20:47;;;;;;;8.43;4.38;;;17.00;72.10;;;;;;5134463;27;20039;-86
2022/04/10 01:23:14;;;;;;;8.65;4.80;;;16.90;73.30;;;;;;5133657;27;20047;-80
2022/04/10 01:25:42;;;;;;;9.35;4.15;;;16.80;74.80;;;;;;5134352;27;20043;-78
2022/04/10 01:28:13;;;;;;;7.53;4.35;;;16.60;75.90;;;;;;5134340;27;20043;-88
2022/04/10 01:30:43;;;;;;;10.10;4.60;;;16.50;76.90;;;;;;5134872;27;20039;-78
2022/04/10 01:33:10;;;;;;;11.80;4.53;;;16.40;77.50;;;;;;5134533;27;20036;-81
2022/04/10 01:35:38;;;;;;;10.57;5.13;;;16.60;77.90;;;;;;5115769;27;20046;-84
2022/04/10 01:38:07;;;;;;;8.90;4.28;;;16.40;77.70;;;;;;5133747;27;20550;-83
2022/04/10 01:40:34;;;;;;;8.70;4.30;;;16.60;76.10;;;;;;5133524;27;20049;-79
2022/04/10 01:43:02;;;;;;;12.75;4.57;;;16.50;77.80;;;;;;5133297;27;20039;-83
2022/04/10 01:45:29;;;;;;;8.65;4.20;;;16.20;79.50;;;;;;5133440;27;20501;-81
2022/04/10 01:47:57;;;;;;;10.52;4.93;;;16.50;73.70;;;;;;5133158;27;20095;-76
2022/04/10 01:50:24;;;;;;;8.95;5.05;;;16.60;75.40;;;;;;5133506;27;20031;-80
2022/04/10 01:52:51;;;;;;;10.10;4.85;;;16.10;81.20;;;;;;5133362;27;20049;-80
2022/04/10 01:55:18;;;;;;;8.75;4.65;;;16.10;82.30;;;;;;5135025;27;20504;-83
2022/04/10 01:57:46;;;;;;;9.73;4.45;;;16.30;82.60;;;;;;5135683;27;20035;-76
2022/04/10 02:00:13;;;;;;;12.40;4.53;;;16.30;83.30;;;;;;5154308;27;20045;-80
2022/04/10 02:02:41;;;;;;;11.60;4.68;;;16.30;84.60;;;;;;5154259;27;20525;-81
2022/04/10 02:05:09;;;;;;;8.45;3.85;;;16.30;85.00;;;;;;5154162;27;20117;-85
2022/04/10 02:07:36;;;;;;;9.10;3.72;;;16.50;82.70;;;;;;5153808;27;20038;-84
2022/04/10 02:10:03;;;;;;;6.47;2.88;;;16.50;77.70;;;;;;5154134;27;20121;-85
2022/04/10 02:12:33;;;;;;;8.15;2.60;;;16.90;70.50;;;;;;5102680;27;20039;-78
2022/04/10 02:15:00;;;;;;;9.70;4.03;;;16.80;72.50;;;;;;5153654;27;20038;-79
2022/04/10 02:17:28;;;;;;;6.88;3.70;;;16.70;76.10;;;;;;5153977;27;20408;-80
2022/04/10 02:19:55;;;;;;;7.70;4.60;;;16.60;81.00;;;;;;5153748;27;20050;-85
2022/04/10 02:22:22;;;;;;;15.57;4.50;;;16.30;82.60;;;;;;5153745;27;20042;-85
2022/04/10 02:24:50;;;;;;;9.13;4.10;;;16.20;86.00;;;;;;5135565;27;20049;-84
2022/04/10 02:27:17;;;;;;;8.20;4.15;;;16.00;88.20;;;;;;5153449;27;20405;-76
2022/04/10 02:29:44;;;;;;;6.97;3.85;;;16.10;87.70;;;;;;5153474;27;20046;-77
2022/04/10 02:32:12;;;;;;;10.68;4.28;;;16.00;89.40;;;;;;5153337;27;20366;-77
2022/04/10 02:34:39;;;;;;;9.52;4.47;;;15.90;90.30;;;;;;5153959;27;20039;-78
2022/04/10 02:37:06;;;;;;;7.88;4.25;;;16.00;90.40;;;;;;5153442;27;20039;-79
2022/04/10 02:39:34;;;;;;;9.90;3.88;;;16.00;90.20;;;;;;5152699;27;20051;-81
2022/04/10 02:42:02;;;;;;;9.35;3.95;;;16.10;88.30;;;;;;5153857;27;20421;-85
2022/04/10 02:44:47;;;;;;;6.70;3.60;;;16.10;90.30;;;;;;5154162;27;20409;-85
2022/04/10 02:47:15;;;;;;;6.40;3.17;;;16.10;86.40;;;;;;5153855;27;20035;-87
2022/04/10 02:49:42;;;;;;;7.32;3.40;;;16.20;80.30;;;;;;5135756;27;20042;-87
2022/04/10 02:52:09;;;;;;;9.38;3.25;;;16.30;78.70;;;;;;5153542;27;20042;-85
2022/04/10 02:54:36;;;;;;;6.47;3.10;;;16.20;77.70;;;;;;5134719;27;20516;-81
2022/04/10 02:57:23;;;;;;;5.25;2.97;;;16.10;78.40;;;;;;5136526;27;20047;-76
2022/04/10 03:00:08;;;;;;;5.50;3.50;;;16.00;77.30;;;;;;5117507;28;20050;-85
2022/04/10 03:02:54;;;;;;;5.15;2.92;;;15.90;77.40;;;;;;5133306;28;20054;-75
2022/04/10 03:05:40;;;;;;;5.47;2.50;;;16.00;77.20;;;;;;5097389;28;20054;-83
2022/04/10 03:08:26;;;;;;;8.13;2.90;;;15.90;77.70;;;;;;5132775;28;20421;-80
2022/04/10 03:11:12;;;;;;;7.38;3.58;;;15.80;77.70;;;;;;5133329;28;20050;-87
2022/04/10 03:13:58;;;;;;;5.65;3.25;;;16.10;77.60;;;;;;5133870;28;20054;-85
2022/04/10 03:16:44;;;;;;;5.28;2.92;;;16.40;76.40;;;;;;5099442;28;20050;-86
2022/04/10 03:19:30;;;;;;;6.05;3.08;;;16.40;75.90;;;;;;5132710;28;20055;-85
2022/04/10 03:22:15;;;;;;;6.88;2.90;;;16.20;75.80;;;;;;5132676;28;20062;-85
2022/04/10 03:25:02;;;;;;;6.88;2.75;;;16.10;76.70;;;;;;5134574;27;20050;-89
2022/04/10 03:27:48;;;;;;;7.78;3.13;;;15.70;78.00;;;;;;5137079;27;20443;-83
2022/04/10 03:30:34;;;;;;;3.88;2.75;;;16.00;78.00;;;;;;5096007;27;20050;-81
2022/04/10 03:33:20;;;;;;;6.93;2.72;;;16.20;77.10;;;;;;5137047;27;20176;-76
2022/04/10 03:36:05;;;;;;;7.07;3.17;;;16.40;76.40;;;;;;5136592;27;20127;-85
2022/04/10 03:38:51;;;;;;;6.60;2.88;;;16.50;75.90;;;;;;5108109;27;20054;-78
2022/04/10 03:41:37;;;;;;;6.13;2.88;;;16.50;75.60;;;;;;5098108;27;20061;-87
2022/04/10 03:44:23;;;;;;;7.03;3.42;;;15.70;77.90;;;;;;5137015;27;20108;-85
2022/04/10 03:47:09;;;;;;;5.18;2.90;;;15.80;78.70;;;;;;5136632;27;20570;-88
2022/04/10 03:49:55;;;;;;;4.38;2.90;;;16.10;76.50;;;;;;5136851;27;20054;-84
2022/04/10 03:52:41;;;;;;;6.03;2.90;;;15.80;78.00;;;;;;5135904;27;20045;-89
2022/04/10 03:55:27;;;;;;;7.35;2.67;;;15.80;77.50;;;;;;5136556;27;20058;-89
2022/04/10 03:58:13;;;;;;;7.45;3.42;;;16.20;76.40;;;;;;5115762;28;20043;-83
2022/04/10 04:00:59;;;;;;;6.20;3.40;;;16.40;76.10;;;;;;5116241;28;20054;-83
2022/04/10 04:03:45;;;;;;;5.00;3.00;;;16.50;75.20;;;;;;5115716;28;20104;-86
2022/04/10 04:06:31;;;;;;;6.80;3.28;;;15.90;77.20;;;;;;5116086;28;20120;-81
2022/04/10 04:09:16;;;;;;;7.28;2.88;;;16.00;77.90;;;;;;5115209;28;20058;-78
2022/04/10 04:12:02;;;;;;;6.22;2.67;;;16.30;77.30;;;;;;5100514;28;20046;-84
2022/04/10 04:14:48;;;;;;;7.93;3.03;;;16.40;76.80;;;;;;5115804;28;20176;-89
2022/04/10 04:17:34;;;;;;;5.90;2.90;;;16.50;76.90;;;;;;5115698;28;20217;-86
2022/04/10 04:20:20;;;;;;;5.68;2.70;;;16.40;77.20;;;;;;5115563;28;20090;-87
2022/04/10 04:23:06;;;;;;;6.95;2.42;;;16.30;78.20;;;;;;5115844;28;20055;-81
2022/04/10 04:25:52;;;;;;;4.30;2.95;;;16.00;77.90;;;;;;5113945;28;20547;-77
2022/04/10 04:28:38;;;;;;;5.93;2.78;;;15.80;79.00;;;;;;5114357;28;20046;-84
2022/04/10 04:31:24;;;;;;;5.25;2.70;;;15.70;79.80;;;;;;5114152;28;20731;-76
2022/04/10 04:34:11;;;;;;;8.52;3.20;;;15.60;80.50;;;;;;5114958;28;20491;-75
2022/04/10 04:36:58;;;;;;;5.50;2.80;;;15.60;80.60;;;;;;5113146;28;20480;-75
2022/04/10 04:39:44;;;;;;;8.25;3.00;;;16.00;79.90;;;;;;5114263;28;20058;-78
2022/04/10 04:42:29;;;;;;;5.90;2.58;;;15.80;80.00;;;;;;5114577;28;20529;-75
2022/04/10 04:45:16;;;;;;;4.03;2.55;;;15.60;81.90;;;;;;5114410;28;20062;-78
2022/04/10 04:48:03;;;;;;;4.00;2.50;;;15.40;83.30;;;;;;5113980;28;20087;-77
2022/04/10 04:50:48;;;;;;;14.80;4.75;;;15.10;86.80;;;;;;5114365;28;20055;-78
2022/04/10 04:53:34;;;;;;;18.50;4.70;;;14.00;93.10;;;;;;5114518;28;20139;-78
2022/04/10 04:56:20;;;;;;;11.07;4.82;;;13.70;96.40;;;;;;5122458;27;20098;-87
2022/04/10 04:59:06;;;;;;;13.57;4.97;;;13.10;98.40;;;;;;5155534;27;20050;-76
2022/04/10 05:01:52;;;;;;;13.48;4.53;;;12.80;99.90;;;;;;5155020;27;20057;-78
2022/04/10 05:04:38;;;;;;;13.13;4.82;;;12.20;99.90;;;;;;5134757;27;20054;-84
2022/04/10 05:07:24;;;;;;;22.03;7.67;;;11.90;99.90;;;;;;5134000;27;20469;-79
2022/04/10 05:10:09;;;;;;;27.17;8.27;;;11.80;99.90;;;;;;5118403;27;20099;-81
2022/04/10 05:12:55;;;;;;;26.95;11.57;;;11.60;99.90;;;;;;5118455;27;20054;-79
2022/04/10 05:15:41;;;;;;;11.30;6.40;;;11.90;99.90;;;;;;5134653;27;20054;-84
2022/04/10 05:18:28;;;;;;;11.93;4.75;;;11.80;99.90;;;;;;5044162;28;20115;-87
2022/04/10 05:21:14;;;;;;;9.55;4.40;;;11.50;99.90;;;;;;5020614;28;20433;-84
2022/04/10 05:24:00;;;;;;;7.85;5.80;;;11.30;99.90;;;;;;5010973;28;20071;-84
2022/04/10 05:26:46;;;;;;;8.23;4.20;;;11.30;99.90;;;;;;5068218;28;20114;-80
2022/04/10 05:29:32;;;;;;;6.60;3.67;;;11.10;99.90;;;;;;5011523;28;20057;-93
2022/04/10 05:32:17;;;;;;;10.70;4.13;;;11.00;99.90;;;;;;5011246;28;20130;-87
2022/04/10 05:35:05;;;;;;;6.25;3.75;;;11.10;99.90;;;;;;5011856;28;20057;-84
2022/04/10 05:37:51;;;;;;;6.40;4.07;;;10.70;99.90;;;;;;5068059;28;20071;-89
2022/04/10 05:40:36;;;;;;;4.20;3.63;;;10.70;99.90;;;;;;5011675;28;20069;-89
2022/04/10 05:43:23;;;;;;;10.65;4.43;;;10.80;99.90;;;;;;5011127;28;20191;-92
2022/04/10 05:46:08;;;;;;;7.28;4.07;;;10.80;99.90;;;;;;5012002;28;20138;-86
2022/04/10 05:48:54;;;;;;;4.47;3.75;;;11.00;99.90;;;;;;5010400;28;20068;-89
2022/04/10 05:51:40;;;;;;;6.55;3.53;;;10.30;99.90;;;;;;5011486;28;20110;-84
2022/04/10 05:54:26;;;;;;;4.07;3.20;;;10.00;99.90;;;;;;5011180;28;20057;-84
2022/04/10 05:57:12;;;;;;;4.18;3.53;;;9.70;99.90;;;;;;5011213;28;20542;-82
2022/04/10 05:59:58;;;;;;;5.45;3.97;;;9.50;99.90;;;;;;5067346;28;20179;-83
2022/04/10 06:02:44;;;;;;;4.25;3.55;;;9.50;99.90;;;;;;5009880;28;20079;-84
2022/04/10 06:05:30;;;;;;;4.20;3.50;;;9.30;99.90;;;;;;5067961;28;20049;-82
2022/04/10 06:08:16;;;;;;;4.95;4.13;;;9.40;99.90;;;;;;5067105;28;20234;-77
2022/04/10 06:11:03;;;;;;;34.10;19.80;;;9.80;99.90;;;;;;5009487;28;20057;-78
2022/04/10 06:13:49;;;;;;;3.88;3.50;;;10.40;99.90;;;;;;5065671;28;20134;-82
2022/04/10 06:16:16;;;;;;;4.85;3.42;;;10.20;99.90;;;;;;5060803;28;20046;-83
2022/04/10 06:18:44;;;;;;;3.83;3.20;;;10.00;99.90;;;;;;5090870;28;20048;-84
2022/04/10 06:21:11;;;;;;;5.07;3.15;;;9.90;99.90;;;;;;5091192;28;20135;-82
2022/04/10 06:23:39;;;;;;;7.50;3.60;;;9.50;99.90;;;;;;5074409;28;20458;-84
2022/04/10 06:30:37;;;;;;;3.92;3.50;;;9.50;99.90;;;;;;4978259;22;20113;-84
2022/04/10 06:33:04;;;;;;;4.30;3.70;;;9.90;99.90;;;;;;4932034;29;20043;-84
2022/04/10 06:35:32;;;;;;;4.50;3.50;;;9.70;99.90;;;;;;4997722;28;20562;-81
2022/04/10 06:37:59;;;;;;;6.53;3.92;;;9.60;99.90;;;;;;4997434;28;20142;-84
2022/04/10 06:40:26;;;;;;;7.20;3.80;;;9.90;99.90;;;;;;4997667;28;20058;-83
2022/04/10 06:42:57;;;;;;;4.18;3.65;;;9.60;99.90;;;;;;4996734;28;20392;-81
2022/04/10 06:45:24;;;;;;;5.22;4.13;;;9.50;99.90;;;;;;4932838;29;20052;-85
2022/04/10 06:47:52;;;;;;;4.70;3.88;;;9.40;99.90;;;;;;4981536;28;20407;-79
2022/04/10 06:50:20;;;;;;;4.43;3.80;;;8.70;99.90;;;;;;4998382;28;20113;-83
2022/04/10 06:52:50;;;;;;;3.60;3.30;;;8.50;99.90;;;;;;4995600;28;20399;-79
2022/04/10 06:55:17;;;;;;;3.80;3.40;;;8.30;99.90;;;;;;4950628;28;20059;-80
2022/04/10 06:57:44;;;;;;;4.55;3.38;;;8.50;99.90;;;;;;5016784;28;20047;-78
2022/04/10 07:00:15;;;;;;;3.60;3.30;;;8.50;99.90;;;;;;5003366;28;20138;-80
2022/04/10 07:02:42;;;;;;;4.03;3.38;;;8.60;99.90;;;;;;5004736;28;20059;-86
2022/04/10 07:05:11;;;;;;;4.82;3.47;;;8.30;99.90;;;;;;5020862;28;20063;-81
2022/04/10 07:07:40;;;;;;;3.53;3.22;;;8.60;99.90;;;;;;5004185;28;20047;-81
2022/04/10 07:10:08;;;;;;;3.70;3.38;;;8.50;99.90;;;;;;4954026;29;20465;-79
2022/04/10 07:12:35;;;;;;;3.50;3.20;;;8.30;99.90;;;;;;4953606;29;20069;-80
2022/04/10 07:15:03;;;;;;;3.90;3.50;;;8.40;99.90;;;;;;5021025;28;20047;-82
2022/04/10 07:17:31;;;;;;;3.65;3.30;;;8.60;99.90;;;;;;5020724;28;20137;-83
2022/04/10 07:19:58;;;;;;;3.90;3.50;;;8.40;99.90;;;;;;5021167;28;20130;-84
2022/04/10 07:28:07;;;;;;;3.50;3.20;;;8.30;99.90;;;;;;5367119;23;20051;-83
2022/04/10 07:30:43;;;;;;;4.10;3.35;;;8.50;99.90;;;;;;4960826;28;20066;-85
2022/04/10 07:33:41;;;;;;;3.60;3.30;;;8.70;99.90;;;;;;4943616;28;20073;-85
2022/04/10 07:36:32;;;;;;;3.72;3.28;;;8.40;99.90;;;;;;4886503;29;20047;-82
2022/04/10 07:39:54;;;;;;;;;;;;;;;;;;;;;
2022/04/10 07:42:53;;;;;;;3.55;3.25;;;8.10;99.90;;;;;;4916475;29;20140;-80
2022/04/10 07:48:10;;;;;;;3.93;3.53;;;8.50;99.90;;;;;;4900548;29;20147;-80
2022/04/10 07:50:38;;;;;;;4.05;3.65;;;8.30;99.90;;;;;;4885629;29;20056;-83
2022/04/10 07:53:05;;;;;;;11.02;7.30;;;8.60;99.90;;;;;;4884842;29;20047;-80
2022/04/10 07:55:33;;;;;;;5.30;4.50;;;8.90;99.90;;;;;;4900276;29;20062;-79
2022/04/10 07:58:01;;;;;;;13.13;7.80;;;8.90;99.90;;;;;;4923544;29;20047;-79
2022/04/10 08:06:27;;;;;;;4.07;3.50;;;8.50;99.90;;;;;;5374720;23;20137;-84
2022/04/10 08:08:54;;;;;;;3.30;3.00;;;8.60;99.90;;;;;;4972489;28;20034;-84
2022/04/10 08:11:21;;;;;;;3.50;3.20;;;8.60;99.90;;;;;;4974169;28;20129;-84
2022/04/10 08:13:51;;;;;;;3.60;3.30;;;8.50;99.90;;;;;;4981321;28;20053;-82
2022/04/10 08:19:08;;;;;;;4.40;3.30;;;8.70;99.90;;;;;;5007670;23;20132;-85
2022/04/10 08:22:06;;;;;;;5.10;3.50;;;8.60;99.90;;;;;;4994070;28;20077;-84
2022/04/10 08:25:11;;;;;;;3.60;3.30;;;8.50;99.90;;;;;;4977733;28;20030;-82
2022/04/10 08:27:38;;;;;;;4.13;3.72;;;8.60;99.90;;;;;;4977652;28;20377;-81
2022/04/10 08:30:31;;;;;;;3.67;3.38;;;8.30;99.90;;;;;;4943402;28;20374;-83
2022/04/10 08:33:18;;;;;;;3.83;3.42;;;8.50;99.90;;;;;;4964071;28;20034;-82
2022/04/10 08:35:45;;;;;;;3.55;3.25;;;8.70;99.90;;;;;;4977023;28;20393;-80
2022/04/10 08:38:13;;;;;;;3.80;3.45;;;8.60;99.90;;;;;;4960905;28;20045;-83
2022/04/10 08:40:40;;;;;;;3.75;3.40;;;8.60;99.90;;;;;;4961233;28;20092;-85
2022/04/10 08:43:11;;;;;;;3.33;3.03;;;8.40;99.90;;;;;;4976945;28;20045;-80
2022/04/10 08:45:40;;;;;;;3.65;3.35;;;8.30;99.90;;;;;;4959484;28;20050;-79
2022/04/10 08:48:08;;;;;;;3.90;3.30;;;8.50;99.90;;;;;;4976730;28;20089;-83
2022/04/10 08:50:36;;;;;;;3.40;3.10;;;8.30;99.90;;;;;;4975918;28;20077;-82
2022/04/10 08:53:04;;;;;;;4.43;3.60;;;8.30;99.90;;;;;;4976665;28;20117;-81
2022/04/10 08:55:38;;;;;;;3.80;3.50;;;8.30;99.90;;;;;;4961978;28;20201;-81
2022/04/10 08:58:05;;;;;;;5.22;3.97;;;8.00;99.90;;;;;;4979278;28;20038;-82
2022/04/10 09:00:58;;;;;;;3.40;3.10;;;8.10;99.90;;;;;;4959022;28;20076;-83
2022/04/10 09:03:31;;;;;;;3.97;3.58;;;7.90;99.90;;;;;;4959382;28;20048;-82
2022/04/10 09:06:23;;;;;;;4.10;3.53;;;8.00;99.90;;;;;;4974775;28;20042;-85
2022/04/10 09:09:18;;;;;;;13.25;8.52;;;8.00;99.90;;;;;;4958059;28;20070;-80
2022/04/10 09:11:53;;;;;;;8.23;6.07;;;8.10;99.90;;;;;;4974807;28;20043;-78
2022/04/10 09:14:22;;;;;;;5.15;4.25;;;8.20;99.90;;;;;;4975181;28;20401;-83
2022/04/10 09:17:08;;;;;;;4.57;4.00;;;8.50;99.90;;;;;;4976754;28;20052;-87
2022/04/10 09:19:37;;;;;;;4.10;3.70;;;8.50;99.90;;;;;;4977213;28;20149;-89
2022/04/10 09:22:30;;;;;;;3.90;3.50;;;8.20;99.90;;;;;;4961440;28;20042;-82
2022/04/10 09:25:13;;;;;;;4.15;3.63;;;8.10;99.90;;;;;;4976451;28;20054;-85
2022/04/10 09:27:47;;;;;;;4.30;3.70;;;7.90;99.90;;;;;;4990871;28;20054;-82
2022/04/10 09:30:20;;;;;;;4.07;3.53;;;7.80;99.90;;;;;;4974412;28;20061;-79
2022/04/10 09:32:51;;;;;;;3.97;3.58;;;7.60;99.90;;;;;;4989107;28;20125;-80
2022/04/10 09:35:20;;;;;;;4.20;3.80;;;7.50;99.90;;;;;;4974407;28;20504;-83
2022/04/10 09:37:53;;;;;;;4.32;3.92;;;7.70;99.90;;;;;;4957541;28;20042;-82
2022/04/10 09:40:35;;;;;;;4.60;4.13;;;7.60;99.90;;;;;;4956358;28;20392;-81
2022/04/10 09:43:07;;;;;;;4.65;4.25;;;7.50;99.90;;;;;;4969135;28;20048;-79
2022/04/10 09:45:40;;;;;;;4.10;3.70;;;7.50;99.90;;;;;;4990670;28;20402;-80
2022/04/10 09:48:28;;;;;;;3.88;3.58;;;7.50;99.90;;;;;;4955840;28;20395;-89
2022/04/10 09:51:01;;;;;;;3.92;3.63;;;7.50;99.90;;;;;;4973278;28;20034;-83
2022/04/10 09:53:30;;;;;;;6.35;4.55;;;7.40;99.90;;;;;;4989370;28;20174;-84
2022/04/10 09:56:07;;;;;;;4.82;4.32;;;7.40;99.90;;;;;;4958153;28;20430;-83
2022/04/10 09:58:39;;;;;;;4.70;4.20;;;7.70;99.90;;;;;;4956724;28;20150;-85
2022/04/10 10:01:11;;;;;;;4.78;3.83;;;7.40;99.90;;;;;;4990661;28;20295;-79
2022/04/10 10:03:42;;;;;;;5.00;4.50;;;7.40;99.90;;;;;;4958315;28;20050;-80
2022/04/10 10:06:12;;;;;;;4.93;4.03;;;7.50;99.90;;;;;;4974015;28;20053;-84
2022/04/10 10:08:40;;;;;;;;;;;7.50;99.90;;;;;;4958319;28;20054;-83
2022/04/10 10:20:00;;;;;;;3.60;3.30;;;7.40;99.90;;;;;;4967579;28;20059;-82
2022/04/10 10:22:52;;;;;;;3.90;3.50;;;7.30;99.90;;;;;;4938423;29;20125;-85
2022/04/10 10:26:47;;;;;;;3.75;3.45;;;7.30;99.90;;;;;;4951769;29;20145;-84
2022/04/10 10:29:43;;;;;;;4.57;4.07;;;7.50;99.90;;;;;;4950715;29;20415;-88
2022/04/10 10:32:26;;;;;;;3.85;3.45;;;7.50;99.90;;;;;;4936984;29;20051;-88
2022/04/10 10:35:14;;;;;;;3.70;3.40;;;7.50;99.90;;;;;;4937675;29;20081;-91
2022/04/10 10:38:02;;;;;;;3.92;3.40;;;7.40;99.90;;;;;;4953307;29;20051;-85
2022/04/10 10:40:40;;;;;;;5.53;3.45;;;7.40;99.90;;;;;;4967799;28;20148;-85
2022/04/10 10:43:47;;;;;;;7.30;4.65;;;7.30;99.90;;;;;;4968098;28;20051;-81
2022/04/10 10:46:21;;;;;;;9.75;6.18;;;7.30;99.90;;;;;;4951662;29;20055;-80
2022/04/10 10:49:10;;;;;;;3.80;3.50;;;7.50;99.90;;;;;;4935033;29;20179;-85
2022/04/10 10:51:39;;;;;;;3.55;3.25;;;7.40;99.90;;;;;;4940508;29;20807;-79
2022/04/10 10:54:34;;;;;;;4.80;3.67;;;7.10;99.90;;;;;;4928645;29;20444;-83
2022/04/10 11:00:52;;;;;;;5.55;3.70;;;7.10;99.90;;;;;;4913558;28;20191;-82
2022/04/10 11:07:43;;;;;;;4.10;3.70;;;7.00;99.90;;;;;;4890410;29;20055;-81
2022/04/10 11:14:14;;;;;;;4.35;3.95;;;7.10;99.90;;;;;;5144695;22;20186;-82
2022/04/10 11:18:00;;;;;;;7.10;3.70;;;7.00;99.90;;;;;;4861683;29;20044;-83
2022/04/10 11:24:42;;;;;;;3.55;3.25;;;6.80;99.90;;;;;;4858573;29;20085;-80
2022/04/10 11:27:40;;;;;;;3.80;3.50;;;6.70;99.90;;;;;;4897429;29;20103;-84
2022/04/10 11:30:09;;;;;;;4.03;3.63;;;6.60;99.90;;;;;;4954268;28;20042;-79
2022/04/10 11:32:53;;;;;;;5.20;4.25;;;6.60;99.90;;;;;;4937907;28;20058;-81
2022/04/10 11:56:59;;;;;;;3.95;3.63;;;6.70;99.90;;;;;;4892475;29;20049;-78
2022/04/10 12:00:13;;;;;;;4.70;3.70;;;6.70;99.90;;;;;;4895115;29;20043;-80
2022/04/10 12:07:25;;;;;;;4.70;4.20;;;6.70;99.90;;;;;;5872856;23;20074;-80
2022/04/10 12:10:22;;;;;;;4.40;4.00;;;6.60;99.90;;;;;;4957986;28;20035;-80
2022/04/10 12:13:09;;;;;;;4.18;3.80;;;6.80;99.90;;;;;;4936763;28;20157;-79
2022/04/10 12:25:27;;;;;;;5.32;4.03;;;6.60;99.90;;;;;;5411366;23;20420;-79
2022/04/10 12:27:58;;;;;;;4.68;4.05;;;6.90;99.90;;;;;;4898993;29;20048;-81
2022/04/10 12:30:40;;;;;;;3.97;3.58;;;6.80;99.90;;;;;;4898382;29;20527;-79
2022/04/10 12:33:08;;;;;;;5.35;4.60;;;6.80;99.90;;;;;;4883652;29;20048;-78
2022/04/10 12:35:39;;;;;;;6.60;4.95;;;7.00;99.90;;;;;;4899774;29;20467;-78
2022/04/10 12:38:08;;;;;;;21.88;13.35;;;7.20;99.90;;;;;;4906516;29;20115;-76
2022/04/10 12:40:35;;;;;;;6.85;6.15;;;7.20;99.90;;;;;;4881246;29;20052;-79
2022/04/10 12:43:12;;;;;;;4.68;3.90;;;7.20;99.90;;;;;;4898775;29;20044;-81
2022/04/10 13:10:10;;;;;;;4.97;4.15;;;7.90;99.90;;;;;;5088047;23;20297;-82
2022/04/10 13:12:40;;;;;;;4.15;3.75;;;7.90;99.90;;;;;;4917941;29;20499;-90
2022/04/10 13:15:40;;;;;;;4.93;4.13;;;7.90;99.90;;;;;;4917173;29;20047;-83
2022/04/10 13:18:09;;;;;;;5.57;4.18;;;7.90;99.90;;;;;;4902764;29;20086;-80
2022/04/10 13:20:38;;;;;;;4.40;4.00;;;8.10;99.90;;;;;;4899081;29;20451;-80
2022/04/10 13:27:20;;;;;;;4.10;3.70;;;8.30;99.90;;;;;;4984269;23;20061;-81
2022/04/10 13:30:13;;;;;;;4.60;4.10;;;8.00;99.90;;;;;;4877552;29;20473;-84
2022/04/10 13:32:49;;;;;;;4.80;4.30;;;8.10;99.90;;;;;;4900504;29;20083;-85
2022/04/10 13:35:22;;;;;;;5.05;4.50;;;8.10;99.90;;;;;;4882182;29;20051;-84
2022/04/10 13:38:40;;;;;;;5.75;4.45;;;8.20;99.90;;;;;;4899299;29;20055;-84
2022/04/10 13:41:08;;;;;;;6.68;4.65;;;8.00;99.90;;;;;;4883862;29;20663;-86
2022/04/10 13:43:35;;;;;;;6.05;4.70;;;8.20;99.90;;;;;;4896466;29;20511;-84
2022/04/10 13:46:03;;;;;;;6.13;5.32;;;8.10;99.90;;;;;;4880899;29;20059;-83
2022/04/10 13:48:31;;;;;;;6.35;5.18;;;8.20;99.90;;;;;;4869249;29;20048;-86
2022/04/10 13:51:01;;;;;;;9.40;5.00;;;8.20;99.90;;;;;;4880670;29;20139;-84
2022/04/10 13:53:38;;;;;;;6.97;5.10;;;8.20;99.90;;;;;;4884130;29;20044;-87
2022/04/10 13:56:14;;;;;;;6.53;5.07;;;8.50;99.90;;;;;;4873682;29;20420;-83
2022/04/10 13:58:41;;;;;;;40.75;21.45;;;8.20;99.90;;;;;;4893009;29;20041;-82
2022/04/10 14:01:09;;;;;;;73.07;40.00;;;8.70;99.90;;;;;;4880170;29;20419;-84
2022/04/10 14:03:36;;;;;;;17.23;12.30;;;8.60;99.90;;;;;;4863882;29;20040;-82
2022/04/10 14:06:04;;;;;;;15.43;10.52;;;9.00;99.90;;;;;;4880474;29;20123;-87
2022/04/10 14:08:31;;;;;;;8.10;6.53;;;9.30;99.90;;;;;;4864476;29;20110;-86
2022/04/10 14:11:18;;;;;;;7.53;5.32;;;9.30;99.90;;;;;;4881216;29;20105;-82
2022/04/10 14:13:45;;;;;;;7.50;6.05;;;9.30;99.90;;;;;;4864914;29;20139;-85
2022/04/10 14:16:13;;;;;;;7.63;5.55;;;9.40;99.90;;;;;;4877976;29;20040;-83
2022/04/10 14:18:41;;;;;;;8.15;6.05;;;9.40;99.90;;;;;;4873449;29;20063;-84
2022/04/10 14:21:09;;;;;;;7.70;5.90;;;9.50;99.90;;;;;;4852775;29;20056;-82
2022/04/10 14:23:36;;;;;;;7.93;6.22;;;9.60;99.90;;;;;;4865822;29;20047;-83
2022/04/10 14:26:08;;;;;;;9.43;6.05;;;9.80;99.90;;;;;;4879589;29;20048;-82
2022/04/10 14:28:43;;;;;;;8.88;6.00;;;9.80;99.90;;;;;;4895033;29;20049;-86
2022/04/10 14:31:10;;;;;;;8.25;5.90;;;9.80;99.90;;;;;;4879071;29;20063;-81
2022/04/10 14:33:38;;;;;;;8.88;5.80;;;9.90;99.90;;;;;;4866682;29;21393;-85
2022/04/10 14:36:05;;;;;;;7.32;5.68;;;9.80;99.90;;;;;;4896485;29;20040;-85
2022/04/10 14:38:33;;;;;;;8.05;5.50;;;9.80;99.90;;;;;;4871896;29;20047;-84
2022/04/10 14:41:14;;;;;;;7.72;5.50;;;9.70;99.90;;;;;;4879063;29;20053;-81
2022/04/10 14:44:31;;;;;;;8.27;5.97;;;9.50;99.90;;;;;;4891704;29;20047;-84
2022/04/10 14:48:08;;;;;;;7.72;5.72;;;9.50;99.90;;;;;;4869243;29;20097;-80
2022/04/10 14:50:39;;;;;;;9.43;6.30;;;9.60;99.90;;;;;;4860899;29;20495;-82
2022/04/10 15:00:50;;;;;;;11.10;7.70;;;9.20;99.90;;;;;;5139825;23;20047;-83
2022/04/10 15:03:21;;;;;;;6.93;5.07;;;9.30;99.90;;;;;;4893061;29;20039;-82
2022/04/10 15:05:49;;;;;;;6.05;5.00;;;9.30;99.90;;;;;;4892490;29;20058;-83
2022/04/10 15:08:16;;;;;;;7.13;4.72;;;9.10;99.90;;;;;;4920260;29;20131;-79
2022/04/10 15:10:46;;;;;;;14.05;9.77;;;9.10;99.90;;;;;;4879735;29;20044;-78
2022/04/10 15:13:14;;;;;;;8.60;7.07;;;9.00;99.90;;;;;;4906661;29;20048;-76
2022/04/10 15:15:42;;;;;;;22.30;14.85;;;9.00;99.90;;;;;;4893598;29;20078;-78
2022/04/10 15:18:09;;;;;;;14.73;10.18;;;9.00;99.90;;;;;;4889778;29;20131;-79
2022/04/10 15:20:36;;;;;;;7.80;5.68;;;8.90;99.90;;;;;;4899542;29;20048;-81
2022/04/10 15:23:22;;;;;;;6.50;5.53;;;8.90;99.90;;;;;;4907249;29;20150;-86
2022/04/10 15:25:50;;;;;;;6.00;4.68;;;8.80;99.90;;;;;;4905953;29;20035;-79
2022/04/10 15:28:18;;;;;;;7.72;5.07;;;8.80;99.90;;;;;;4906282;29;20119;-76
2022/04/10 15:30:45;;;;;;;5.93;5.22;;;8.50;99.90;;;;;;4882039;29;20055;-79
2022/04/10 15:33:12;;;;;;;9.35;5.38;;;8.40;99.90;;;;;;4914689;29;20036;-84
2022/04/10 15:35:41;;;;;;;6.80;5.10;;;8.50;99.90;;;;;;4900402;29;20437;-85
2022/04/10 15:38:08;;;;;;;5.18;4.68;;;8.60;99.90;;;;;;4869379;29;20041;-85
2022/04/10 15:40:36;;;;;;;7.10;5.50;;;8.50;99.90;;;;;;4871081;29;20048;-80
2022/04/10 15:43:03;;;;;;;4.97;4.18;;;8.70;99.90;;;;;;4884685;29;20044;-83